Time;durP1;ratioP1;P1;durP2;ratioP2;P2;SDS_P1;SDS_P2;PMS_P1;PMS_P2;Temp;Humidity;BMP_temperature;BMP_pressure;BME280_temperature;BME280_humidity;BME280_pressure;Samples;Min_cycle;Max_cycle;Signal;HPM_P1;HPM_P2
2022/12/07 05:02:48;;;;;;;23.80;17.45;;;;;;;6.05;89.09;100438.13;5605024;31;84668;-57
2022/12/07 05:05:50;;;;;;;26.90;18.48;;;;;;;6.05;89.09;100438.13;5603018;31;33381;-57
2022/12/07 05:08:52;;;;;;;24.00;16.95;;;;;;;5.78;100.00;100441.50;5602825;31;33617;-58
2022/12/07 05:11:55;;;;;;;24.10;17.40;;;;;;;5.68;92.45;100443.22;5603230;31;34219;-57
2022/12/07 05:14:57;;;;;;;26.05;18.00;;;;;;;5.67;87.57;100436.31;5602547;31;33699;-58
2022/12/07 05:17:59;;;;;;;24.67;18.15;;;;;;;5.56;89.60;100436.19;5603586;31;33624;-58
2022/12/07 05:21:01;;;;;;;26.33;18.65;;;;;;;5.58;87.36;100439.38;5603371;31;34292;-58
2022/12/07 05:24:05;;;;;;;23.33;17.05;;;;;;;5.72;85.98;100428.38;5603377;31;33745;-58
2022/12/07 05:27:07;;;;;;;25.67;18.08;;;;;;;5.89;85.42;100429.12;5603541;31;33761;-58
2022/12/07 05:30:09;;;;;;;22.37;17.42;;;;;;;5.83;92.53;100440.78;5602743;31;34403;-58
2022/12/07 05:33:11;;;;;;;23.25;16.73;;;;;;;5.70;86.99;100438.47;5602920;31;34301;-58
2022/12/07 05:36:14;;;;;;;23.48;17.92;;;;;;;5.89;100.00;100429.12;5603414;31;34568;-58
2022/12/07 05:39:16;;;;;;;23.92;17.37;;;;;;;5.85;89.82;100422.69;5603193;31;33825;-58
2022/12/07 05:42:19;;;;;;;24.92;17.92;;;;;;;5.71;90.90;100416.94;5602950;31;33603;-58
2022/12/07 05:45:21;;;;;;;22.62;17.50;;;;;;;5.78;92.22;100416.75;5577957;31;33569;-58
2022/12/07 05:48:23;;;;;;;23.87;16.40;;;;;;;5.77;98.00;100417.81;5580415;31;34354;-58
2022/12/07 05:51:26;;;;;;;23.73;17.40;;;;;;;5.80;100.00;100420.78;5581152;32;33651;-58
2022/12/07 05:54:28;;;;;;;23.60;17.98;;;;;;;5.67;90.33;100420.34;5578916;31;32086;-58
2022/12/07 05:57:30;;;;;;;21.52;17.00;;;;;;;5.56;90.01;100427.37;5570392;32;33625;-58
2022/12/07 06:00:33;;;;;;;22.95;17.98;;;;;;;5.75;88.52;100422.56;5577444;31;33399;-58
2022/12/07 06:03:35;;;;;;;21.12;17.08;;;;;;;5.87;87.09;100429.38;5570726;31;34405;-58
2022/12/07 06:06:37;;;;;;;22.17;17.65;;;;;;;5.74;95.30;100420.97;5567800;31;33707;-57
2022/12/07 06:09:40;;;;;;;22.33;17.23;;;;;;;5.83;99.65;100419.50;5570790;32;34340;-58
2022/12/07 06:12:43;;;;;;;25.37;18.23;;;;;;;5.95;100.00;100427.37;5562065;31;33663;-58
2022/12/07 06:15:45;;;;;;;25.58;18.05;;;;;;;5.82;93.51;100426.66;5569766;31;33993;-58
2022/12/07 06:18:47;;;;;;;22.87;17.67;;;;;;;5.84;93.38;100423.75;5553921;32;33838;-58
2022/12/07 06:21:49;;;;;;;25.48;18.65;;;;;;;5.84;88.77;100423.75;5554652;31;34408;-58
2022/12/07 06:24:51;;;;;;;22.65;18.40;;;;;;;5.84;95.69;100418.44;5563788;31;33723;-58
2022/12/07 06:27:55;;;;;;;25.33;18.48;;;;;;;5.80;95.66;100428.75;5566296;32;33744;-58
2022/12/07 06:30:58;;;;;;;22.73;17.98;;;;;;;5.76;89.61;100430.31;5566311;32;33773;-58
2022/12/07 06:34:08;;;;;;;27.45;19.85;;;;;;;5.80;91.41;100427.97;5569286;31;33753;-58
2022/12/07 06:37:10;;;;;;;26.92;20.35;;;;;;;6.08;99.62;100435.78;5560827;31;33606;-58
2022/12/07 06:40:13;;;;;;;31.12;22.15;;;;;;;5.94;100.00;100429.22;5557282;32;33687;-58
2022/12/07 06:43:15;;;;;;;31.17;21.80;;;;;;;6.14;98.47;100435.84;5580821;31;34363;-58
2022/12/07 06:46:17;;;;;;;28.80;22.33;;;;;;;6.10;96.84;100435.53;5576559;31;33884;-58
2022/12/07 06:49:20;;;;;;;28.38;20.77;;;;;;;6.23;90.91;100439.69;5555815;31;34215;-58
2022/12/07 06:52:23;;;;;;;28.27;22.40;;;;;;;6.02;89.33;100442.09;5548681;32;33582;-58
2022/12/07 06:55:25;;;;;;;29.15;22.80;;;;;;;5.96;92.87;100443.09;5549948;32;33712;-58
2022/12/07 06:58:28;;;;;;;29.35;21.80;;;;;;;5.99;92.06;100444.44;5563007;32;33808;-58
2022/12/07 07:01:30;;;;;;;28.40;21.37;;;;;;;5.97;88.99;100449.22;5564519;31;34329;-57
2022/12/07 07:04:33;;;;;;;27.48;20.00;;;;;;;6.05;94.30;100446.13;5551434;32;33559;-58
2022/12/07 07:07:35;;;;;;;27.65;20.73;;;;;;;6.23;92.43;100439.69;5560973;32;33835;-58
2022/12/07 07:10:57;;;;;;;48.72;18.92;;;;;;;6.12;94.61;100449.38;5560841;32;34392;-58
2022/12/07 07:14:02;;;;;;;23.17;18.45;;;;;;;5.96;97.07;100442.28;5561213;31;33635;-58
2022/12/07 07:17:04;;;;;;;21.55;17.15;;;;;;;6.02;98.56;100442.09;5560749;32;34304;-58
2022/12/07 07:20:07;;;;;;;21.27;16.65;;;;;;;6.14;100.00;100441.16;5552621;32;33599;-58
2022/12/07 07:23:09;;;;;;;20.92;16.50;;;;;;;6.16;92.37;100441.69;5562392;31;34552;-58
2022/12/07 07:26:11;;;;;;;19.20;14.30;;;;;;;6.11;91.83;100447.78;5567718;32;34277;-58
2022/12/07 07:29:14;;;;;;;19.00;14.82;;;;;;;6.23;90.54;100451.13;5563292;32;33573;-58
2022/12/07 07:32:16;;;;;;;19.05;13.82;;;;;;;6.19;92.08;100452.69;5567500;32;33620;-58
2022/12/07 07:35:19;;;;;;;18.48;14.27;;;;;;;6.18;94.00;100448.41;5574468;31;33474;-58
2022/12/07 07:38:21;;;;;;;17.15;13.60;;;;;;;6.23;96.79;100451.13;5566159;31;33576;-58
2022/12/07 07:41:23;;;;;;;20.08;14.40;;;;;;;6.41;96.09;100451.84;5564414;32;33565;-58
2022/12/07 07:44:26;;;;;;;20.23;14.35;;;;;;;6.42;99.43;100448.91;5558362;32;34437;-58
2022/12/07 07:47:36;;;;;;;20.27;14.63;;;;;;;6.39;92.10;100452.09;5552079;31;33661;-58
2022/12/07 07:50:38;;;;;;;19.90;15.50;;;;;;;6.40;95.21;100445.72;5553350;31;34470;-58
2022/12/07 07:53:41;;;;;;;18.20;14.73;;;;;;;6.37;92.29;100446.22;5548300;32;33555;-58
2022/12/07 07:56:43;;;;;;;20.17;15.65;;;;;;;6.56;100.00;100449.34;5548744;32;33584;-58
2022/12/07 07:59:45;;;;;;;22.25;15.80;;;;;;;6.52;91.98;100446.38;5563107;31;33213;-58
2022/12/07 08:02:51;;;;;;;20.88;15.00;;;;;;;6.68;100.00;100449.97;5559158;31;33522;-58
2022/12/07 08:05:54;;;;;;;21.85;15.80;;;;;;;6.74;100.00;100445.50;5553276;32;31916;-58
2022/12/07 08:08:57;;;;;;;19.40;15.13;;;;;;;6.64;89.59;100456.88;5554648;32;34269;-58
2022/12/07 08:12:01;;;;;;;20.37;14.50;;;;;;;6.74;100.00;100450.84;5564199;31;34196;-58
2022/12/07 08:15:04;;;;;;;20.27;15.27;;;;;;;6.80;94.65;100452.50;5559866;31;34334;-58
2022/12/07 08:18:07;;;;;;;17.85;14.13;;;;;;;6.75;90.00;100463.09;5553768;32;34353;-58
2022/12/07 08:21:13;;;;;;;19.73;15.02;;;;;;;6.78;95.25;100459.91;5565635;32;34336;-57
2022/12/07 08:24:16;;;;;;;21.05;13.90;;;;;;;6.77;88.91;100458.31;5554877;32;34450;-58
2022/12/07 08:27:18;;;;;;;18.80;14.18;;;;;;;6.86;97.61;100454.16;5568575;31;33263;-58
2022/12/07 08:30:21;;;;;;;20.92;14.55;;;;;;;6.94;100.00;100459.00;5559814;31;33666;-58
2022/12/07 08:33:24;;;;;;;19.40;14.18;;;;;;;6.94;92.04;100461.66;5566091;32;33627;-58
2022/12/07 08:36:26;;;;;;;20.45;15.20;;;;;;;6.90;89.12;100463.22;5552086;32;34276;-58
2022/12/07 08:39:29;;;;;;;19.15;14.07;;;;;;;6.99;92.07;100466.25;5556182;32;33006;-57
2022/12/07 08:42:40;;;;;;;25.15;14.82;;;;;;;6.96;87.99;100469.41;5555408;31;33563;-58
2022/12/07 08:45:42;;;;;;;19.23;14.60;;;;;;;7.02;88.21;100471.88;5559741;31;33701;-58
2022/12/07 08:49:01;;;;;;;19.37;14.73;;;;;;;7.07;90.67;100466.56;5553248;31;33794;-58
2022/12/07 08:52:05;;;;;;;19.83;14.65;;;;;;;7.18;92.84;100467.44;5561485;31;33689;-58
2022/12/07 08:55:10;;;;;;;21.73;16.12;;;;;;;7.28;99.97;100464.88;5566499;32;33699;-58
2022/12/07 08:58:13;;;;;;;18.48;15.20;;;;;;;7.20;92.30;100470.69;5577995;31;33262;-58
2022/12/07 09:01:15;;;;;;;18.85;14.82;;;;;;;7.51;92.12;100474.34;5567623;32;34365;-58
2022/12/07 09:04:17;;;;;;;20.45;15.32;;;;;;;7.38;85.44;100466.78;5567342;32;33824;-58
2022/12/07 09:07:20;;;;;;;20.08;14.32;;;;;;;7.42;89.11;100470.56;5578471;31;34988;-58
2022/12/07 09:10:23;;;;;;;20.20;15.05;;;;;;;7.48;84.62;100469.56;5574901;31;33729;-57
2022/12/07 09:13:25;;;;;;;18.75;14.65;;;;;;;7.48;85.93;100463.38;5567287;31;34320;-58
2022/12/07 09:16:28;;;;;;;18.98;14.90;;;;;;;7.49;90.81;100463.16;5567804;32;34278;-58
2022/12/07 09:19:30;;;;;;;21.00;15.13;;;;;;;7.56;84.21;100454.91;5569495;31;34345;-58
2022/12/07 09:22:33;;;;;;;19.30;14.57;;;;;;;7.52;87.09;100451.16;5568814;31;33580;-57
2022/12/07 09:25:35;;;;;;;20.42;14.77;;;;;;;7.55;87.63;100450.66;5563939;32;33757;-58
2022/12/07 09:28:38;;;;;;;19.83;15.60;;;;;;;7.58;95.99;100450.09;5563282;31;34510;-58
2022/12/07 09:31:40;;;;;;;19.50;14.85;;;;;;;7.93;91.18;100454.84;5567951;31;33196;-58
2022/12/07 09:34:43;;;;;;;17.55;13.88;;;;;;;7.81;89.02;100451.56;5566307;31;33677;-58
2022/12/07 09:37:45;;;;;;;16.23;12.57;;;;;;;7.87;96.00;100453.19;5570094;31;33603;-58
2022/12/07 09:40:48;;;;;;;19.33;14.77;;;;;;;7.89;92.77;100448.41;5555216;31;33677;-58
2022/12/07 09:43:52;;;;;;;16.25;12.13;;;;;;;7.85;84.01;100446.53;5554901;31;33705;-57
2022/12/07 09:46:56;;;;;;;15.35;12.48;;;;;;;8.11;89.64;100444.75;5563284;31;34329;-58
2022/12/07 09:50:13;;;;;;;15.35;11.85;;;;;;;8.05;90.17;100437.81;5549533;32;33686;-58
2022/12/07 09:53:24;;;;;;;15.27;11.48;;;;;;;8.11;85.16;100439.41;5574450;31;33702;-57
2022/12/07 09:56:30;;;;;;;13.20;9.95;;;;;;;8.12;76.25;100438.38;5556051;31;33622;-58
2022/12/07 09:59:32;;;;;;;13.15;10.18;;;;;;;8.03;79.55;100434.59;5549431;32;34513;-58
2022/12/07 10:02:45;;;;;;;12.52;9.70;;;;;;;7.91;75.30;100432.12;5566527;31;33590;-58
2022/12/07 10:05:51;;;;;;;13.15;10.40;;;;;;;7.90;74.60;100433.19;5550394;32;34368;-58
2022/12/07 10:08:53;;;;;;;13.02;9.90;;;;;;;7.91;76.51;100424.13;5568292;31;33688;-57
2022/12/07 10:12:13;;;;;;;11.68;9.52;;;;;;;7.81;77.15;100427.53;5570435;31;34390;-58
2022/12/07 10:15:15;;;;;;;13.95;9.93;;;;;;;7.75;75.04;100415.25;5567541;32;33652;-58
2022/12/07 10:18:35;;;;;;;11.68;9.18;;;;;;;7.87;73.69;100418.50;5551357;32;33664;-57
2022/12/07 10:21:37;;;;;;;13.80;10.55;;;;;;;7.90;74.44;100428.66;5554375;32;33688;-57
2022/12/07 10:24:42;;;;;;;15.43;10.80;;;;;;;7.97;78.62;100413.19;5556544;31;34393;-58
2022/12/07 10:27:57;;;;;;;14.57;10.93;;;;;;;7.91;78.49;100421.44;5562879;31;34628;-58
2022/12/07 10:31:04;;;;;;;15.70;11.90;;;;;;;7.96;82.08;100424.16;5567652;31;34453;-58
2022/12/07 10:34:22;;;;;;;16.00;10.85;;;;;;;8.11;80.10;100421.53;5562462;31;34393;-58
2022/12/07 10:37:27;;;;;;;13.93;10.45;;;;;;;8.13;76.66;100408.72;5561148;31;33765;-58
2022/12/07 10:40:35;;;;;;;14.10;9.87;;;;;;;8.17;77.71;100409.78;5564707;31;34290;-58
2022/12/07 10:43:53;;;;;;;10.05;7.87;;;;;;;8.09;74.37;100407.63;5564510;31;34834;-57
2022/12/07 10:47:01;;;;;;;11.38;8.50;;;;;;;8.04;69.85;100401.47;5554029;31;33594;-59
2022/12/07 10:50:16;;;;;;;12.55;8.27;;;;;;;7.95;70.11;100403.88;5565605;31;33719;-58
2022/12/07 10:53:34;;;;;;;11.50;8.10;;;;;;;7.77;71.17;100413.13;5563787;31;33269;-58
2022/12/07 10:56:58;;;;;;;11.45;7.75;;;;;;;8.00;73.35;100409.22;5558833;31;33756;-57
2022/12/07 11:00:22;;;;;;;10.18;7.32;;;;;;;8.10;71.26;100408.44;5553532;32;34310;-58
2022/12/07 11:03:31;;;;;;;10.90;7.80;;;;;;;8.12;76.87;100406.31;5560439;31;33681;-58
2022/12/07 11:06:41;;;;;;;12.95;7.32;;;;;;;7.98;69.42;100404.16;5560291;31;34372;-57
2022/12/07 11:09:59;;;;;;;12.15;7.40;;;;;;;7.94;69.85;100399.56;5567113;31;33660;-58
2022/12/07 11:13:34;;;;;;;8.93;7.10;;;;;;;8.03;70.91;100403.34;5562497;31;33587;-58
2022/12/07 11:16:42;;;;;;;10.45;7.68;;;;;;;7.92;71.46;100391.84;5564275;31;33281;-58
2022/12/07 11:20:18;;;;;;;11.20;7.47;;;;;;;8.19;76.67;100393.53;5562536;32;34345;-58
2022/12/07 11:23:39;;;;;;;12.37;8.30;;;;;;;8.33;77.48;100393.81;5561633;32;34403;-58
2022/12/07 11:26:47;;;;;;;12.90;8.52;;;;;;;8.29;71.80;100385.53;5562826;31;34262;-57
2022/12/07 11:30:02;;;;;;;11.75;7.82;;;;;;;8.23;70.38;100387.38;5567263;31;34493;-58
2022/12/07 11:33:11;;;;;;;10.13;8.10;;;;;;;8.35;72.99;100384.47;5550114;32;33843;-58
2022/12/07 11:36:33;;;;;;;10.52;8.02;;;;;;;8.35;71.93;100378.34;5554092;31;33139;-58
2022/12/07 11:39:44;;;;;;;9.98;7.60;;;;;;;8.34;71.55;100384.72;5560188;31;34340;-58
2022/12/07 11:42:55;;;;;;;10.95;8.20;;;;;;;8.44;70.61;100385.59;5565480;31;33594;-57
2022/12/07 11:46:08;;;;;;;10.68;7.43;;;;;;;8.46;69.57;100375.41;5563150;31;33691;-58
2022/12/07 11:49:24;;;;;;;10.15;7.60;;;;;;;8.40;69.83;100373.81;5557531;31;33848;-57
2022/12/07 11:52:40;;;;;;;9.63;7.63;;;;;;;8.48;73.12;100383.19;5549645;32;33736;-57
2022/12/07 11:55:42;;;;;;;10.52;8.20;;;;;;;8.56;70.83;100388.00;5555008;31;34077;-58
2022/12/07 11:58:49;;;;;;;9.85;7.95;;;;;;;8.60;69.01;100396.28;5565580;31;33811;-58
2022/12/07 12:02:11;;;;;;;10.77;8.27;;;;;;;8.37;67.95;100401.00;5568762;32;33787;-58
2022/12/07 12:05:21;;;;;;;11.05;8.32;;;;;;;8.47;69.01;100393.03;5561619;31;34337;-57
2022/12/07 12:08:29;;;;;;;11.15;8.23;;;;;;;8.54;68.63;100387.44;5563080;32;33836;-57
2022/12/07 12:12:07;;;;;;;11.68;8.70;;;;;;;8.52;65.71;100383.44;5567075;31;33641;-57
2022/12/07 12:15:51;;;;;;;10.60;8.02;;;;;;;8.56;80.90;100379.19;5568168;31;34337;-57
2022/12/07 12:19:26;;;;;;;9.32;7.00;;;;;;;8.58;67.11;100369.81;5564487;32;34522;-58
2022/12/07 12:22:42;;;;;;;11.43;7.87;;;;;;;8.68;66.53;100356.47;5565919;31;33704;-57
2022/12/07 12:26:00;;;;;;;8.45;6.97;;;;;;;8.62;66.95;100346.03;5548769;32;34978;-58
2022/12/07 12:29:08;;;;;;;10.15;7.28;;;;;;;8.64;68.75;100344.72;5562242;32;33787;-58
2022/12/07 12:32:16;;;;;;;10.93;7.82;;;;;;;8.53;66.00;100339.63;5565002;31;34322;-57
2022/12/07 12:35:45;;;;;;;11.02;7.65;;;;;;;8.47;68.49;100336.94;5552478;31;34107;-58
2022/12/07 12:39:14;;;;;;;9.80;7.18;;;;;;;8.46;66.37;100340.69;5564851;32;34155;-58
2022/12/07 12:42:18;;;;;;;9.77;7.32;;;;;;;8.56;76.43;100331.06;5559465;31;34299;-58
2022/12/07 12:45:27;;;;;;;10.80;7.80;;;;;;;8.54;67.98;100327.84;5562976;32;33803;-58
2022/12/07 12:48:35;;;;;;;9.68;7.75;;;;;;;8.59;73.78;100330.53;5564044;32;33643;-57
2022/12/07 12:51:40;;;;;;;9.98;7.30;;;;;;;8.71;76.29;100333.75;5547689;31;34942;-57
2022/12/07 12:55:08;;;;;;;11.18;7.93;;;;;;;8.72;73.98;100326.53;5549672;31;32362;-58
2022/12/07 12:58:19;;;;;;;10.10;7.95;;;;;;;8.63;69.97;100328.94;5552598;32;33895;-58
2022/12/07 13:01:27;;;;;;;12.27;8.63;;;;;;;8.68;68.98;100343.09;5555256;32;33715;-58
2022/12/07 13:05:00;;;;;;;10.88;8.60;;;;;;;8.63;71.11;100334.28;5549430;32;34405;-57
2022/12/07 13:08:21;;;;;;;10.75;8.30;;;;;;;8.61;70.31;100339.06;5546444;31;33047;-58
2022/12/07 13:11:40;;;;;;;10.25;8.48;;;;;;;8.75;75.49;100344.72;5549368;32;33844;-58
2022/12/07 13:14:57;;;;;;;11.70;8.40;;;;;;;8.71;68.99;100344.44;5558989;32;33705;-58
2022/12/07 13:18:02;;;;;;;11.93;8.85;;;;;;;8.68;67.08;100345.78;5563323;32;34468;-58
2022/12/07 13:21:07;;;;;;;9.85;7.78;;;;;;;8.66;68.81;100347.09;5567352;32;34371;-58
2022/12/07 13:24:13;;;;;;;13.27;8.20;;;;;;;8.64;67.37;100342.03;5569904;32;34295;-58
2022/12/07 13:27:15;;;;;;;9.70;7.53;;;;;;;8.59;69.17;100344.69;5570271;32;33874;-58
2022/12/07 13:30:21;;;;;;;11.25;7.10;;;;;;;8.64;70.51;100347.38;5570021;32;33659;-58
2022/12/07 13:33:27;;;;;;;13.50;7.50;;;;;;;8.68;65.60;100348.44;5562163;32;34406;-58
2022/12/07 13:36:39;;;;;;;12.57;7.50;;;;;;;8.61;65.42;100349.75;5567798;32;35001;-58
2022/12/07 13:39:47;;;;;;;11.35;8.15;;;;;;;8.56;69.80;100350.56;5569885;32;33252;-58
2022/12/07 13:42:58;;;;;;;11.07;7.30;;;;;;;8.54;66.33;100346.56;5570019;32;34386;-58
2022/12/07 13:46:00;;;;;;;10.13;7.47;;;;;;;8.54;65.87;100349.22;5570333;32;34101;-58
2022/12/07 13:49:23;;;;;;;11.15;7.62;;;;;;;8.41;63.56;100354.06;5569956;32;33338;-58
2022/12/07 13:52:30;;;;;;;11.52;7.80;;;;;;;8.40;63.38;100363.13;5570329;32;33423;-58
2022/12/07 13:55:32;;;;;;;12.30;7.82;;;;;;;8.34;65.91;100358.00;5570458;32;33953;-58
2022/12/07 13:58:34;;;;;;;9.95;7.62;;;;;;;8.23;63.65;100358.00;5563813;32;34283;-58
2022/12/07 14:01:37;;;;;;;10.70;7.65;;;;;;;8.21;62.73;100362.00;5550544;32;33817;-58
2022/12/07 14:04:39;;;;;;;12.35;7.57;;;;;;;8.15;63.55;100369.22;5550728;32;33598;-58
2022/12/07 14:07:58;;;;;;;11.73;8.48;;;;;;;8.22;65.95;100369.75;5550105;32;33683;-58
2022/12/07 14:11:01;;;;;;;15.27;7.70;;;;;;;8.24;70.43;100370.31;5570186;32;33726;-58
2022/12/07 14:14:04;;;;;;;10.80;7.60;;;;;;;8.27;64.42;100360.13;5570390;32;33749;-58
2022/12/07 14:17:18;;;;;;;12.68;8.02;;;;;;;8.24;65.52;100367.62;5570011;32;34457;-58
2022/12/07 14:20:38;;;;;;;11.38;8.18;;;;;;;8.30;68.66;100365.75;5569909;32;34330;-58
2022/12/07 14:23:42;;;;;;;11.90;7.80;;;;;;;8.26;70.58;100364.69;5569086;32;33685;-58
2022/12/07 14:26:46;;;;;;;11.95;8.00;;;;;;;8.26;72.35;100367.34;5570064;32;34315;-58
2022/12/07 14:29:48;;;;;;;12.10;8.43;;;;;;;8.33;72.10;100359.88;5569968;32;33371;-57
2022/12/07 14:32:54;;;;;;;10.98;8.20;;;;;;;8.30;66.35;100363.09;5569157;32;33642;-57
2022/12/07 14:35:57;;;;;;;12.68;8.10;;;;;;;8.26;72.57;100364.69;5569696;32;33931;-58
2022/12/07 14:39:00;;;;;;;12.50;9.18;;;;;;;8.20;71.24;100363.88;5569968;32;33920;-57
2022/12/07 14:42:02;;;;;;;12.45;8.73;;;;;;;8.26;73.04;100363.88;5569454;32;33668;-58
2022/12/07 14:45:06;;;;;;;15.10;9.88;;;;;;;8.27;68.86;100370.81;5569449;32;34283;-57
2022/12/07 14:48:13;;;;;;;14.20;9.18;;;;;;;8.13;70.85;100375.87;5567492;32;34475;-58
2022/12/07 14:51:39;;;;;;;16.17;9.13;;;;;;;7.90;69.50;100380.59;5567850;32;33238;-57
2022/12/07 14:55:01;;;;;;;16.30;9.55;;;;;;;7.91;70.12;100376.06;5569363;32;33778;-58
2022/12/07 14:58:03;;;;;;;14.70;9.10;;;;;;;7.81;71.95;100378.72;5569669;32;33703;-57
2022/12/07 15:01:06;;;;;;;17.52;10.20;;;;;;;7.75;74.89;100388.59;5569522;32;33717;-57
2022/12/07 15:04:08;;;;;;;15.93;9.02;;;;;;;7.63;71.41;100386.13;5569642;32;33739;-57
2022/12/07 15:07:19;;;;;;;14.13;8.35;;;;;;;7.57;74.56;100389.03;5569859;32;33641;-57
2022/12/07 15:10:24;;;;;;;13.20;8.82;;;;;;;7.61;82.89;100380.22;5559793;32;33797;-58
2022/12/07 15:16:47;;;;;;;13.40;8.90;;;;;;;7.54;75.73;100399.13;5550129;32;34364;-58
2022/12/07 15:20:13;;;;;;;19.75;9.80;;;;;;;7.52;74.44;100400.47;5550028;32;33702;-58
2022/12/07 15:23:15;;;;;;;18.70;9.87;;;;;;;7.45;75.34;100400.72;5549685;32;33835;-57
2022/12/07 15:26:17;;;;;;;17.33;11.27;;;;;;;7.38;73.19;100401.97;5549844;32;33627;-58
2022/12/07 15:29:20;;;;;;;18.52;11.25;;;;;;;7.38;77.77;100401.97;5549644;32;33227;-57
2022/12/07 15:32:25;;;;;;;16.55;10.90;;;;;;;7.33;72.38;100401.97;5549437;32;33668;-57
2022/12/07 15:35:27;;;;;;;16.98;10.50;;;;;;;7.25;71.52;100401.41;5549702;32;34313;-58
2022/12/07 15:38:30;;;;;;;18.27;12.30;;;;;;;7.20;82.24;100405.88;5549079;32;33847;-57
2022/12/07 15:41:52;;;;;;;22.30;12.68;;;;;;;7.06;73.71;100410.88;5549556;32;33668;-58
2022/12/07 15:45:03;;;;;;;19.40;12.75;;;;;;;7.02;74.69;100421.22;5562366;32;33679;-57
2022/12/07 15:48:06;;;;;;;27.42;18.02;;;;;;;6.94;83.06;100418.22;5569517;32;34231;-57
2022/12/07 15:51:29;;;;;;;35.80;21.48;;;;;;;6.86;75.58;100429.38;5569325;32;34466;-57
2022/12/07 15:54:32;;;;;;;24.20;15.25;;;;;;;6.81;80.70;100430.09;5569176;32;33795;-58
2022/12/07 15:57:36;;;;;;;28.98;16.60;;;;;;;6.84;77.60;100424.28;5569181;32;34467;-57
2022/12/07 16:00:38;;;;;;;29.70;18.42;;;;;;;6.82;75.62;100427.22;5569175;32;34251;-57
2022/12/07 16:03:41;;;;;;;32.78;15.85;;;;;;;6.67;76.32;100423.59;5569346;32;33742;-57
2022/12/07 16:06:44;;;;;;;28.77;16.05;;;;;;;6.67;75.09;100429.72;5569219;32;34209;-57
2022/12/07 16:09:47;;;;;;;34.85;15.90;;;;;;;6.46;78.58;100431.41;5569284;32;33681;-57
2022/12/07 16:12:49;;;;;;;25.92;14.93;;;;;;;6.60;74.23;100426.47;5569147;32;34386;-58
2022/12/07 16:15:53;;;;;;;22.23;14.93;;;;;;;6.46;76.01;100434.06;5569132;32;33770;-58
2022/12/07 16:18:55;;;;;;;22.25;15.20;;;;;;;6.38;73.82;100429.16;5569372;32;33797;-58
2022/12/07 16:21:58;;;;;;;22.58;14.15;;;;;;;6.39;81.87;100422.81;5569191;32;33377;-57
2022/12/07 16:25:00;;;;;;;26.75;19.35;;;;;;;6.27;74.35;100419.47;5568537;32;33904;-57
2022/12/07 16:28:03;;;;;;;26.00;18.17;;;;;;;6.27;74.61;100420.28;5568536;32;34116;-57
2022/12/07 16:31:09;;;;;;;29.25;19.62;;;;;;;6.32;75.09;100422.19;5569234;32;34296;-57
2022/12/07 16:34:12;;;;;;;29.05;17.40;;;;;;;6.23;75.59;100413.06;5568964;32;33877;-57
2022/12/07 16:37:14;;;;;;;21.42;15.27;;;;;;;6.28;73.85;100421.88;5568989;32;34052;-57
2022/12/07 16:40:16;;;;;;;21.48;15.25;;;;;;;6.27;74.65;100425.59;5569137;32;34399;-57
